createdAt,value
2022-11-15T00:01:44.084Z,100.00
2022-11-15T00:04:29.996Z,100.00
2022-11-15T00:07:40.416Z,100.00
2022-11-15T00:10:20.994Z,100.00
2022-11-15T00:13:12.010Z,100.00
2022-11-15T00:16:02.173Z,100.00
2022-11-15T00:18:50.514Z,100.00
2022-11-15T00:21:36.627Z,100.00
2022-11-15T00:24:21.885Z,100.00
2022-11-15T00:27:08.249Z,100.00
2022-11-15T00:29:54.193Z,100.00
2022-11-15T00:32:39.790Z,100.00
2022-11-15T00:35:25.180Z,100.00
2022-11-15T00:38:10.630Z,100.00
2022-11-15T00:40:56.043Z,100.00
2022-11-15T00:43:44.307Z,100.00
2022-11-15T00:46:29.621Z,100.00
2022-11-15T00:49:14.950Z,100.00
2022-11-15T00:52:00.290Z,100.00
2022-11-15T00:54:46.989Z,100.00
2022-11-15T00:57:32.411Z,100.00
2022-11-15T01:00:18.132Z,100.00
2022-11-15T01:03:04.001Z,100.00
2022-11-15T01:05:49.444Z,100.00
2022-11-15T01:08:35.505Z,100.00
2022-11-15T01:11:21.275Z,100.00
2022-11-15T01:14:06.702Z,100.00
2022-11-15T01:16:51.928Z,100.00
2022-11-15T01:19:37.188Z,100.00
2022-11-15T01:22:23.166Z,100.00
2022-11-15T01:25:08.531Z,100.00
2022-11-15T01:27:53.864Z,100.00
2022-11-15T01:30:39.324Z,100.00
2022-11-15T01:33:24.616Z,100.00
2022-11-15T01:36:18.921Z,100.00
2022-11-15T01:39:04.323Z,100.00
2022-11-15T01:41:49.778Z,100.00
2022-11-15T01:44:39.803Z,100.00
2022-11-15T01:47:40.762Z,100.00
2022-11-15T01:50:33.439Z,100.00
2022-11-15T01:53:22.703Z,100.00
2022-11-15T01:56:16.094Z,100.00
2022-11-15T01:59:07.914Z,100.00
2022-11-15T02:01:53.704Z,100.00
2022-11-15T02:04:46.678Z,100.00
2022-11-15T02:07:35.491Z,100.00
2022-11-15T02:10:24.415Z,100.00
2022-11-15T02:13:09.860Z,100.00
2022-11-15T02:16:30.347Z,100.00
2022-11-15T02:19:33.983Z,100.00
2022-11-15T02:22:53.260Z,100.00
2022-11-15T02:26:12.877Z,100.00
2022-11-15T02:29:04.213Z,100.00
2022-11-15T02:32:22.275Z,100.00
2022-11-15T02:35:52.849Z,100.00
2022-11-15T02:39:09.169Z,100.00
2022-11-15T02:42:46.563Z,100.00
2022-11-15T02:45:41.005Z,100.00
2022-11-15T02:48:27.338Z,100.00
2022-11-15T02:51:14.464Z,100.00
2022-11-15T02:54:00.213Z,100.00
2022-11-15T02:56:47.263Z,100.00
2022-11-15T02:59:44.727Z,100.00
2022-11-15T03:02:54.177Z,100.00
2022-11-15T03:05:57.347Z,100.00
2022-11-15T03:09:11.889Z,100.00
2022-11-15T03:12:08.662Z,100.00
2022-11-15T03:15:05.501Z,100.00
2022-11-15T03:18:31.345Z,100.00
2022-11-15T03:21:20.023Z,100.00
2022-11-15T03:24:08.985Z,100.00
2022-11-15T03:26:56.786Z,100.00
2022-11-15T03:29:48.667Z,100.00
2022-11-15T03:32:40.902Z,100.00
2022-11-15T03:35:31.861Z,100.00
2022-11-15T03:38:27.084Z,100.00
2022-11-15T03:41:28.600Z,100.00
2022-11-15T03:44:21.677Z,100.00
2022-11-15T03:47:22.578Z,100.00
2022-11-15T03:50:21.350Z,100.00
2022-11-15T03:53:07.290Z,100.00
2022-11-15T03:55:52.641Z,100.00
2022-11-15T03:58:37.988Z,100.00
2022-11-15T04:01:24.062Z,100.00
2022-11-15T04:04:09.560Z,100.00
2022-11-15T04:06:55.001Z,100.00
2022-11-15T04:10:00.327Z,100.00
2022-11-15T04:12:48.651Z,100.00
2022-11-15T04:15:34.854Z,100.00
2022-11-15T04:18:20.409Z,100.00
2022-11-15T04:21:24.783Z,100.00
2022-11-15T04:24:15.993Z,100.00
2022-11-15T04:27:01.457Z,100.00
2022-11-15T04:29:46.834Z,100.00
2022-11-15T04:32:32.508Z,100.00
2022-11-15T04:35:17.857Z,100.00
2022-11-15T04:38:05.881Z,100.00
2022-11-15T04:40:51.367Z,100.00
2022-11-15T04:43:36.729Z,100.00
2022-11-15T04:46:23.093Z,100.00
2022-11-15T04:49:08.625Z,100.00
2022-11-15T04:51:54.141Z,100.00
2022-11-15T04:54:39.361Z,100.00
2022-11-15T04:57:24.779Z,100.00
2022-11-15T05:00:15.001Z,100.00
2022-11-15T05:03:18.880Z,100.00
2022-11-15T05:06:04.590Z,100.00
2022-11-15T05:08:49.929Z,100.00
2022-11-15T05:11:35.378Z,100.00
2022-11-15T05:14:20.807Z,100.00
2022-11-15T05:17:06.175Z,100.00
2022-11-15T05:19:52.845Z,100.00
2022-11-15T05:22:38.931Z,100.00
2022-11-15T05:25:24.653Z,100.00
2022-11-15T05:28:10.057Z,100.00
2022-11-15T05:31:16.803Z,100.00
2022-11-15T05:34:05.978Z,100.00
2022-11-15T05:36:51.681Z,100.00
2022-11-15T05:39:37.234Z,100.00
2022-11-15T05:42:22.842Z,100.00
2022-11-15T05:45:10.445Z,100.00
2022-11-15T05:48:00.447Z,100.00
2022-11-15T05:50:48.203Z,100.00
2022-11-15T05:53:34.631Z,100.00
2022-11-15T05:56:20.287Z,100.00
2022-11-15T05:59:06.328Z,100.00
2022-11-15T06:01:51.715Z,100.00
2022-11-15T06:04:37.520Z,100.00
2022-11-15T06:07:23.355Z,100.00
2022-11-15T06:10:09.905Z,100.00
2022-11-15T06:13:03.571Z,100.00
2022-11-15T06:15:49.276Z,100.00
2022-11-15T06:18:35.618Z,100.00
2022-11-15T06:21:21.854Z,100.00
2022-11-15T06:24:07.785Z,100.00
2022-11-15T06:26:53.491Z,100.00
2022-11-15T06:29:38.762Z,100.00
2022-11-15T06:32:24.216Z,100.00
2022-11-15T06:35:09.573Z,100.00
2022-11-15T06:37:55.370Z,100.00
2022-11-15T06:40:41.019Z,100.00
2022-11-15T06:43:26.735Z,100.00
2022-11-15T06:46:12.414Z,100.00
2022-11-15T06:48:57.933Z,100.00
2022-11-15T06:51:43.132Z,100.00
2022-11-15T06:54:28.534Z,100.00
2022-11-15T06:57:13.923Z,100.00
2022-11-15T06:59:59.341Z,100.00
2022-11-15T07:02:45.183Z,100.00
2022-11-15T07:05:31.315Z,100.00
2022-11-15T07:08:16.504Z,100.00
2022-11-15T07:11:06.428Z,100.00
2022-11-15T07:13:51.920Z,100.00
2022-11-15T07:16:38.391Z,100.00
2022-11-15T07:19:23.700Z,100.00
2022-11-15T07:22:09.068Z,100.00
2022-11-15T07:24:54.951Z,100.00
2022-11-15T07:27:40.375Z,100.00
2022-11-15T07:30:27.931Z,100.00
2022-11-15T07:33:13.655Z,100.00
2022-11-15T07:36:04.625Z,100.00
2022-11-15T07:38:50.277Z,100.00
2022-11-15T07:41:35.961Z,100.00
2022-11-15T07:44:21.669Z,100.00
2022-11-15T07:47:07.103Z,100.00
2022-11-15T07:49:53.095Z,100.00
2022-11-15T07:52:38.812Z,100.00
2022-11-15T07:55:32.167Z,100.00
2022-11-15T07:58:17.366Z,100.00
2022-11-15T08:01:08.244Z,100.00
2022-11-15T08:03:53.617Z,100.00
2022-11-15T08:06:39.222Z,100.00
2022-11-15T08:09:24.754Z,100.00
2022-11-15T08:12:10.101Z,100.00
2022-11-15T08:14:57.234Z,100.00
2022-11-15T08:17:42.610Z,100.00
2022-11-15T08:20:33.060Z,100.00
2022-11-15T08:23:18.444Z,100.00
2022-11-15T08:26:05.300Z,100.00
2022-11-15T08:28:50.591Z,100.00
2022-11-15T08:31:39.938Z,100.00
2022-11-15T08:34:25.112Z,100.00
2022-11-15T08:37:10.603Z,100.00
2022-11-15T08:39:56.015Z,100.00
2022-11-15T08:42:41.729Z,100.00
2022-11-15T08:45:27.283Z,100.00
2022-11-15T08:48:12.568Z,100.00
2022-11-15T08:50:58.626Z,96.12
2022-11-15T08:53:44.414Z,94.03
2022-11-15T08:56:29.917Z,95.38
2022-11-15T08:59:15.364Z,97.72
2022-11-15T09:02:00.683Z,100.00
2022-11-15T09:04:46.196Z,100.00
2022-11-15T09:07:32.773Z,100.00
2022-11-15T09:10:18.577Z,100.00
2022-11-15T09:13:04.010Z,100.00
2022-11-15T09:15:49.356Z,100.00
2022-11-15T09:18:35.273Z,100.00
2022-11-15T09:21:21.349Z,100.00
2022-11-15T09:24:06.976Z,92.80
2022-11-15T09:26:53.145Z,89.49
2022-11-15T09:29:38.432Z,87.23
2022-11-15T09:32:24.574Z,93.28
2022-11-15T09:35:10.166Z,91.44
2022-11-15T09:37:56.563Z,94.15
2022-11-15T09:40:42.459Z,92.31
2022-11-15T09:44:25.866Z,90.95
2022-11-15T09:47:43.249Z,94.58
2022-11-15T09:50:40.859Z,94.33
2022-11-15T09:53:41.543Z,92.53
2022-11-15T09:56:45.112Z,91.27
2022-11-15T09:59:42.131Z,90.98
2022-11-15T10:03:23.207Z,87.84
2022-11-15T10:05:55.892Z,87.68
2022-11-15T10:08:50.018Z,82.31
2022-11-15T10:11:39.207Z,81.00
2022-11-15T10:14:14.638Z,70.52
2022-11-15T10:17:17.573Z,67.99
2022-11-15T10:20:06.486Z,68.65
2022-11-15T10:22:53.698Z,69.50
2022-11-15T10:25:29.977Z,71.17
2022-11-15T10:28:13.059Z,73.00
2022-11-15T10:30:53.871Z,69.20
2022-11-15T10:33:39.228Z,69.32
2022-11-15T10:36:20.985Z,71.65
2022-11-15T10:38:50.874Z,68.67
2022-11-15T10:41:28.151Z,73.06
2022-11-15T10:44:25.605Z,75.95
2022-11-15T10:46:55.429Z,79.45
2022-11-15T10:49:34.239Z,81.10
2022-11-15T10:52:20.268Z,81.09
2022-11-15T10:54:57.986Z,84.03
2022-11-15T10:57:33.066Z,86.22
2022-11-15T11:00:06.696Z,88.21
2022-11-15T11:02:56.454Z,88.50
2022-11-15T11:05:41.771Z,89.07
2022-11-15T11:08:15.299Z,87.81
2022-11-15T11:11:02.735Z,87.55
2022-11-15T11:13:37.785Z,87.75
2022-11-15T11:16:19.998Z,89.53
2022-11-15T11:19:18.520Z,88.72
2022-11-15T11:22:02.982Z,90.30
2022-11-15T11:25:25.325Z,90.47
2022-11-15T11:28:14.377Z,91.77
2022-11-15T11:31:11.621Z,92.11
2022-11-15T11:33:53.843Z,95.09
2022-11-15T11:36:34.011Z,94.22
2022-11-15T11:39:34.332Z,91.84
2022-11-15T11:42:27.250Z,93.45
2022-11-15T11:45:24.736Z,94.00
2022-11-15T11:48:13.612Z,95.03
2022-11-15T11:50:45.717Z,95.51
2022-11-15T11:53:40.026Z,91.95
2022-11-15T11:56:35.483Z,85.31
2022-11-15T11:59:26.410Z,87.47
2022-11-15T12:01:53.512Z,89.14
2022-11-15T12:04:28.011Z,81.95
2022-11-15T12:07:14.794Z,78.42
2022-11-15T12:10:23.286Z,81.20
2022-11-15T12:13:16.844Z,85.49
2022-11-15T12:15:58.864Z,93.15
2022-11-15T12:18:25.856Z,98.65
2022-11-15T12:21:15.597Z,98.58
2022-11-15T12:23:53.468Z,98.52
2022-11-15T12:26:29.664Z,97.27
2022-11-15T12:29:07.969Z,95.73
2022-11-15T12:31:35.742Z,96.32
2022-11-15T12:34:20.900Z,93.66
2022-11-15T12:36:50.569Z,90.64
2022-11-15T12:39:18.960Z,90.50
2022-11-15T12:42:06.255Z,87.98
2022-11-15T12:44:33.112Z,86.86
2022-11-15T12:47:11.383Z,85.30
2022-11-15T12:49:38.238Z,86.65
2022-11-15T12:52:08.116Z,89.25
2022-11-15T12:54:40.868Z,90.28
2022-11-15T12:57:07.738Z,84.98
2022-11-15T13:00:02.672Z,83.12
2022-11-15T13:02:40.687Z,82.24
2022-11-15T13:05:36.226Z,82.16
2022-11-15T13:08:03.199Z,84.23
2022-11-15T13:10:34.575Z,82.89
2022-11-15T13:13:02.225Z,82.13
2022-11-15T13:15:42.561Z,83.83
2022-11-15T13:18:34.193Z,85.80
2022-11-15T13:21:23.177Z,84.89
2022-11-15T13:23:56.614Z,84.25
2022-11-15T13:26:24.237Z,84.98
2022-11-15T13:28:55.710Z,85.35
2022-11-15T13:31:42.223Z,85.50
2022-11-15T13:34:53.270Z,86.06
2022-11-15T13:37:23.405Z,87.13
2022-11-15T13:39:50.889Z,85.78
2022-11-15T13:42:20.748Z,86.77
2022-11-15T13:45:01.975Z,87.09
2022-11-15T13:47:30.499Z,87.19
2022-11-15T13:50:02.207Z,88.29
2022-11-15T13:52:35.308Z,88.38
2022-11-15T13:55:22.544Z,87.83
2022-11-15T13:57:52.171Z,88.02
2022-11-15T14:00:45.036Z,87.92
2022-11-15T14:03:32.253Z,87.83
2022-11-15T14:06:07.694Z,86.40
2022-11-15T14:08:36.659Z,87.03
2022-11-15T14:11:29.852Z,87.04
2022-11-15T14:14:08.989Z,85.01
2022-11-15T14:16:37.274Z,84.30
2022-11-15T14:19:06.176Z,84.07
2022-11-15T14:21:33.658Z,84.80
2022-11-15T14:24:21.949Z,84.55
2022-11-15T14:26:49.507Z,84.37
2022-11-15T14:29:28.203Z,84.37
2022-11-15T14:32:13.505Z,84.21
2022-11-15T14:34:40.453Z,83.46
2022-11-15T14:37:35.038Z,83.71
2022-11-15T14:40:07.506Z,84.25
2022-11-15T14:42:34.446Z,84.37
2022-11-15T14:45:01.456Z,85.62
2022-11-15T14:47:28.607Z,86.74
2022-11-15T14:49:55.556Z,89.51
2022-11-15T14:52:32.247Z,90.02
2022-11-15T14:55:02.226Z,91.82
2022-11-15T14:57:30.321Z,93.21
2022-11-15T14:59:57.820Z,96.79
2022-11-15T15:02:39.200Z,100.00
2022-11-15T15:05:19.467Z,100.00
2022-11-15T15:07:47.786Z,100.00
2022-11-15T15:10:38.971Z,100.00
2022-11-15T15:13:06.419Z,100.00
2022-11-15T15:15:38.623Z,100.00
2022-11-15T15:18:09.392Z,100.00
2022-11-15T15:20:40.021Z,100.00
2022-11-15T15:23:15.925Z,100.00
2022-11-15T15:25:43.149Z,100.00
2022-11-15T15:28:10.315Z,100.00
2022-11-15T15:30:37.235Z,100.00
2022-11-15T15:33:04.302Z,100.00
2022-11-15T15:35:35.216Z,100.00
2022-11-15T15:38:03.134Z,100.00
2022-11-15T15:40:33.194Z,100.00
2022-11-15T15:43:00.578Z,100.00
2022-11-15T15:45:30.767Z,100.00
2022-11-15T15:47:58.102Z,100.00
2022-11-15T15:50:30.099Z,100.00
2022-11-15T15:53:00.634Z,100.00
2022-11-15T15:55:28.264Z,100.00
2022-11-15T15:57:55.742Z,100.00
2022-11-15T16:00:25.633Z,100.00
2022-11-15T16:02:53.694Z,100.00
2022-11-15T16:05:22.014Z,100.00
2022-11-15T16:07:49.344Z,100.00
2022-11-15T16:10:30.571Z,100.00
2022-11-15T16:12:58.703Z,100.00
2022-11-15T16:15:30.989Z,100.00
2022-11-15T16:18:00.813Z,100.00
2022-11-15T16:20:45.761Z,100.00
2022-11-15T16:23:15.769Z,100.00
2022-11-15T16:25:47.270Z,100.00
2022-11-15T16:28:32.916Z,100.00
2022-11-15T16:31:12.971Z,100.00
2022-11-15T16:33:40.994Z,100.00
2022-11-15T16:36:29.498Z,100.00
2022-11-15T16:38:58.006Z,100.00
2022-11-15T16:41:25.294Z,100.00
2022-11-15T16:43:53.019Z,100.00
2022-11-15T16:46:24.507Z,100.00
2022-11-15T16:48:52.067Z,100.00
2022-11-15T16:51:18.961Z,100.00
2022-11-15T16:53:46.380Z,100.00
2022-11-15T16:56:33.996Z,100.00
2022-11-15T16:59:02.221Z,100.00
2022-11-15T17:01:36.820Z,100.00
2022-11-15T17:04:12.831Z,100.00
2022-11-15T17:06:41.526Z,100.00
2022-11-15T17:09:25.366Z,100.00
2022-11-15T17:11:53.158Z,100.00
2022-11-15T17:14:20.188Z,100.00
2022-11-15T17:16:47.279Z,100.00
2022-11-15T17:19:20.325Z,98.37
2022-11-15T17:21:51.208Z,95.40
2022-11-15T17:24:20.801Z,94.65
2022-11-15T17:26:47.825Z,94.83
2022-11-15T17:29:14.752Z,95.95
2022-11-15T17:31:41.698Z,94.55
2022-11-15T17:34:08.734Z,93.11
2022-11-15T17:36:35.869Z,93.12
2022-11-15T17:39:04.639Z,93.38
2022-11-15T17:41:31.957Z,93.19
2022-11-15T17:44:00.544Z,90.95
2022-11-15T17:46:29.082Z,91.22
2022-11-15T17:48:57.443Z,90.50
2022-11-15T17:51:24.755Z,89.71
2022-11-15T17:53:52.888Z,89.97
2022-11-15T17:56:23.047Z,90.70
2022-11-15T17:58:55.436Z,96.69
2022-11-15T18:01:24.968Z,97.05
2022-11-15T18:03:52.997Z,95.32
2022-11-15T18:06:22.160Z,92.96
2022-11-15T18:08:51.434Z,91.31
2022-11-15T18:11:25.546Z,90.99
2022-11-15T18:13:56.975Z,97.15
2022-11-15T18:16:26.615Z,97.48
2022-11-15T18:18:54.835Z,94.78
2022-11-15T18:21:31.316Z,96.64
2022-11-15T18:24:00.770Z,98.04
2022-11-15T18:26:30.349Z,97.25
2022-11-15T18:29:03.697Z,98.60
2022-11-15T18:31:31.673Z,100.00
2022-11-15T18:34:00.711Z,100.00
2022-11-15T18:36:30.653Z,100.00
2022-11-15T18:39:02.588Z,99.98
2022-11-15T18:41:30.814Z,100.00
2022-11-15T18:44:00.745Z,100.00
2022-11-15T18:46:30.854Z,100.00
2022-11-15T18:49:00.695Z,100.00
2022-11-15T18:51:30.430Z,100.00
2022-11-15T18:54:01.321Z,100.00
2022-11-15T18:56:30.803Z,100.00
2022-11-15T18:59:00.775Z,100.00
2022-11-15T19:01:34.967Z,100.00
2022-11-15T19:04:17.526Z,100.00
2022-11-15T19:06:47.592Z,100.00
2022-11-15T19:09:16.940Z,100.00
2022-11-15T19:11:46.600Z,100.00
2022-11-15T19:14:18.069Z,100.00
2022-11-15T19:16:52.122Z,100.00
2022-11-15T19:19:30.477Z,100.00
2022-11-15T19:21:57.687Z,100.00
2022-11-15T19:24:27.120Z,100.00
2022-11-15T19:26:54.914Z,100.00
2022-11-15T19:29:22.011Z,100.00
2022-11-15T19:31:49.009Z,100.00
2022-11-15T19:34:16.507Z,100.00
2022-11-15T19:36:44.705Z,100.00
2022-11-15T19:39:14.118Z,100.00
2022-11-15T19:41:43.689Z,100.00
2022-11-15T19:44:12.873Z,100.00
2022-11-15T19:46:41.077Z,100.00
2022-11-15T19:49:10.863Z,100.00
2022-11-15T19:51:38.952Z,100.00
2022-11-15T19:54:08.669Z,100.00
2022-11-15T19:56:36.817Z,100.00
2022-11-15T19:59:05.176Z,100.00
2022-11-15T20:01:39.239Z,100.00
2022-11-15T20:04:07.780Z,100.00
2022-11-15T20:06:39.474Z,100.00
2022-11-15T20:09:06.544Z,100.00
2022-11-15T20:11:34.312Z,100.00
2022-11-15T20:14:06.287Z,100.00
2022-11-15T20:16:33.562Z,100.00
2022-11-15T20:19:00.600Z,100.00
2022-11-15T20:21:27.657Z,100.00
2022-11-15T20:23:55.254Z,100.00
2022-11-15T20:26:22.673Z,100.00
2022-11-15T20:28:49.861Z,100.00
2022-11-15T20:31:17.461Z,100.00
2022-11-15T20:33:45.030Z,100.00
2022-11-15T20:36:15.312Z,100.00
2022-11-15T20:38:43.417Z,100.00
2022-11-15T20:41:12.109Z,100.00
2022-11-15T20:43:41.630Z,100.00
2022-11-15T20:46:09.388Z,100.00
2022-11-15T20:48:36.670Z,100.00
2022-11-15T20:51:15.856Z,100.00
2022-11-15T20:53:44.710Z,100.00
2022-11-15T20:56:16.462Z,100.00
2022-11-15T20:58:45.416Z,100.00
2022-11-15T21:01:15.129Z,100.00
2022-11-15T21:03:42.758Z,100.00
2022-11-15T21:06:11.549Z,100.00
2022-11-15T21:08:57.529Z,100.00
2022-11-15T21:11:43.777Z,100.00
2022-11-15T21:14:10.947Z,100.00
2022-11-15T21:16:38.891Z,100.00
2022-11-15T21:19:06.752Z,100.00
2022-11-15T21:21:35.583Z,100.00
2022-11-15T21:24:08.313Z,100.00
2022-11-15T21:26:36.587Z,100.00
2022-11-15T21:29:04.252Z,100.00
2022-11-15T21:31:31.972Z,100.00
2022-11-15T21:34:02.529Z,100.00
2022-11-15T21:36:30.301Z,100.00
2022-11-15T21:38:57.250Z,100.00
2022-11-15T21:41:24.237Z,100.00
2022-11-15T21:43:51.161Z,100.00
2022-11-15T21:46:18.271Z,100.00
2022-11-15T21:48:45.286Z,100.00
2022-11-15T21:51:12.573Z,100.00
2022-11-15T21:53:39.705Z,100.00
2022-11-15T21:56:07.525Z,100.00
2022-11-15T21:58:35.385Z,100.00
2022-11-15T22:01:21.233Z,100.00
2022-11-15T22:03:48.301Z,100.00
2022-11-15T22:06:18.225Z,100.00
2022-11-15T22:08:46.395Z,100.00
2022-11-15T22:11:14.549Z,100.00
2022-11-15T22:13:42.289Z,100.00
2022-11-15T22:16:10.065Z,100.00
2022-11-15T22:18:38.051Z,100.00
2022-11-15T22:21:10.520Z,100.00
2022-11-15T22:23:38.107Z,100.00
2022-11-15T22:26:06.109Z,100.00
2022-11-15T22:28:33.507Z,100.00
2022-11-15T22:31:00.791Z,100.00
2022-11-15T22:33:30.127Z,100.00
2022-11-15T22:35:57.917Z,100.00
2022-11-15T22:38:25.812Z,100.00
2022-11-15T22:40:53.290Z,100.00
2022-11-15T22:43:23.878Z,100.00
2022-11-15T22:45:59.352Z,100.00
2022-11-15T22:48:29.030Z,100.00
2022-11-15T22:50:56.640Z,100.00
2022-11-15T22:53:24.770Z,100.00
2022-11-15T22:55:55.467Z,100.00
2022-11-15T22:58:24.969Z,100.00
2022-11-15T23:00:54.555Z,100.00
2022-11-15T23:03:22.782Z,100.00
2022-11-15T23:05:50.791Z,100.00
2022-11-15T23:08:19.076Z,100.00
2022-11-15T23:11:05.255Z,100.00
2022-11-15T23:13:33.743Z,100.00
2022-11-15T23:16:25.931Z,100.00
2022-11-15T23:18:58.810Z,100.00
2022-11-15T23:21:48.990Z,100.00
2022-11-15T23:24:17.395Z,100.00
2022-11-15T23:26:46.868Z,100.00
2022-11-15T23:29:16.659Z,100.00
2022-11-15T23:32:02.983Z,100.00
2022-11-15T23:34:32.794Z,100.00
2022-11-15T23:37:00.418Z,100.00
2022-11-15T23:39:27.757Z,100.00
2022-11-15T23:41:55.149Z,100.00
2022-11-15T23:44:22.718Z,100.00
2022-11-15T23:46:49.721Z,100.00
2022-11-15T23:49:16.746Z,100.00
2022-11-15T23:51:44.717Z,100.00
2022-11-15T23:54:13.568Z,100.00
2022-11-15T23:56:41.330Z,100.00
2022-11-15T23:59:08.770Z,100.00
